The Hangar Logo

METARs in Plain English
Latest METAR information for EGVN - BRIZE NORTON

EGVN 010650Z 25012KT 9999 BKN011 13/10 Q1020 GRN BECMG BKN022 WHT

In plain english is....

This is a METAR report for EGVN - BRIZE NORTON .
The report was made 35 minutes ago, at 06:50 UTC.
The wind was blowing at a speed of 12 knots (13.8 miles per hour, 6.2 metres per second) from the West/Southwest (250°).
The visibility was greater than 6.2 miles (greater than 10 kilometres).
There were broken clouds at a height of 1100 feet (335 metres).
The temperature was 13°C (55°F), a dew point of 10°C (50°F) and a relative humidity of 82.0%.
The altimeter setting (airfield QNH) was 1,020 hPa (30.12 inHg).
Other remarks GRN BECMG BKN022 WHT.

UK Mainland


Channel Islands



Tel: 07092 887559 - Fax: 07092 183262

Terms of Use | Privacy Statement
Content copyright © 1999-2012 All rights reserved.
Please send your questions, comments, or bug reports to the Webmaster.